Airfield :
LOGIN :

Register | Disclaimer

   EN    FR    IT 

 










Legend :    VFR   Marginal VFR   IFR   Intensive IFR   Very Intensive IFR
Visi :
Ceiling :
>= 8 km
>= 3000ft
5 to 8 km
1000 to 3000 ft
1500m to 5 km
500 to 1000 ft
800 to 1500m
200 to 500 ft
< 800m
< 200 ft
Symbols :   Thunderstorms  Fog  Heavy snow  Heavy precipitations  Wind > 20 kt
SIGMETs :     Misc.  Thunderstorms  Icing  Turbulence  Mountain Waves  Volcanic Ashes






- Airport Elevation : 465 ft
- IATA code : LEJ


EDDP - Leipzig Halle

CURRENT METAR :
  • 250350Z 26009KT 9999 -SHRA SCT020CB BKN030 10/09 Q1027 NOSIG

EXPIRED METARs :
  • 250320Z 26008KT 9999 VCSH FEW020CB SCT040 10/09 Q1027 NOSIG
  • 250250Z 26009KT 9999 FEW020 09/09 Q1027 NOSIG
  • 250220Z 25010KT 9999 SCT018 09/08 Q1026 NOSIG
  • 250150Z 25008KT 9999 SCT018 SCT045 10/08 Q1026 NOSIG
  • 250120Z 27010KT 9999 BKN019 11/09 Q1027 NOSIG

TAF TAF EDDP
Valid from the 25 at 00:00 until the 26 at 00:00 UTC


242300Z 2500/2524 30008KT CAVOK
PROB30
TEMPO 2506/2510 BKN012
BECMG 2506/2509 30015G25KT
BECMG 2513/2516 32010KT
BECMG 2517/2520 32005KT



MET'MAP, your aeronautical weather chart ! - Copyright ORBIFLY December 2007 - Disclaimer

ORBIFLY MET'MAP TEAM :

Programming & Development : Alexandra Zaïnal
Concept & original design : Baudouin d'Aumeries
Assistance for programming : Marc-Olivier Méhu
Technical & hardware support : Manuel Goepfert

Contact : metmap@orbifly.com




SOURCES & CREDITS :

   NOAA